Time;durP1;ratioP1;P1;durP2;ratioP2;P2;SDS_P1;SDS_P2;PMS_P1;PMS_P2;Temp;Humidity;BMP_temperature;BMP_pressure;BME280_temperature;BME280_humidity;BME280_pressure;Samples;Min_cycle;Max_cycle;Signal;HPM_P1;HPM_P2
2021/03/18 00:01:16;;;;;;;8.27;7.22;;;;;;;2.61;66.12;93967.91;4220788;28;20056;-82
2021/03/18 00:03:21;;;;;;;8.30;6.88;;;;;;;2.63;66.10;93968.59;4202474;28;20052;-82
2021/03/18 00:05:23;;;;;;;8.43;7.03;;;;;;;2.64;65.72;93957.28;4240281;28;20062;-83
2021/03/18 00:07:24;;;;;;;10.88;7.72;;;;;;;2.65;65.89;93969.28;4256229;27;20048;-81
2021/03/18 00:09:25;;;;;;;8.00;6.85;;;;;;;2.62;65.71;93969.53;4253384;27;20433;-82
2021/03/18 00:11:27;;;;;;;9.18;7.28;;;;;;;2.54;65.91;93971.94;4233189;28;20047;-82
2021/03/18 00:13:31;;;;;;;8.23;6.63;;;;;;;2.50;66.32;93980.94;4248282;27;20238;-83
2021/03/18 00:15:33;;;;;;;7.95;6.60;;;;;;;2.61;66.02;93973.09;4222584;28;20112;-82
2021/03/18 00:17:34;;;;;;;8.95;7.13;;;;;;;2.54;66.04;93967.63;4247722;27;20047;-70
2021/03/18 00:19:37;;;;;;;9.00;7.43;;;;;;;2.58;66.08;93973.31;4221023;28;20083;-72
2021/03/18 00:21:38;;;;;;;9.32;7.63;;;;;;;2.58;66.17;93973.31;4221198;28;20510;-70
2021/03/18 00:23:40;;;;;;;9.32;7.60;;;;;;;2.52;66.08;93969.50;4209370;28;20052;-73
2021/03/18 00:25:41;;;;;;;10.18;7.53;;;;;;;2.52;65.89;93968.66;4211078;28;20556;-70
2021/03/18 00:27:44;;;;;;;9.07;7.53;;;;;;;2.52;65.87;93966.06;4219288;28;20623;-70
2021/03/18 00:29:46;;;;;;;9.70;7.50;;;;;;;2.59;65.73;93972.41;4200219;28;20049;-71
2021/03/18 00:31:47;;;;;;;10.43;8.05;;;;;;;2.62;66.10;93969.53;4240229;27;20058;-71
2021/03/18 00:33:49;;;;;;;8.85;7.60;;;;;;;2.58;66.10;93971.59;4226744;27;20057;-70
2021/03/18 00:35:50;;;;;;;8.77;7.40;;;;;;;2.58;66.10;93969.00;4194831;28;20048;-71
2021/03/18 00:37:52;;;;;;;9.75;8.20;;;;;;;2.67;66.11;93960.47;4208925;28;20055;-72
2021/03/18 00:39:54;;;;;;;9.68;7.93;;;;;;;2.57;65.82;93971.69;4216514;28;20048;-71
2021/03/18 00:41:55;;;;;;;9.85;8.07;;;;;;;2.67;65.44;93972.56;4221915;28;20048;-72
2021/03/18 00:43:57;;;;;;;9.57;7.55;;;;;;;2.59;65.40;93972.41;4194031;28;20056;-71
2021/03/18 00:45:58;;;;;;;10.65;8.57;;;;;;;2.47;65.85;93963.88;4212586;28;20493;-70
2021/03/18 00:48:00;;;;;;;9.57;7.85;;;;;;;2.57;65.80;93966.53;4223918;28;20304;-70
2021/03/18 00:50:02;;;;;;;10.65;8.50;;;;;;;2.50;65.22;93973.97;4223786;28;20554;-71
2021/03/18 00:52:04;;;;;;;8.18;7.30;;;;;;;2.61;65.45;93967.91;4196020;28;20131;-71
2021/03/18 00:54:05;;;;;;;9.95;8.13;;;;;;;2.62;65.71;93969.53;4209266;28;20044;-71
2021/03/18 00:56:11;;;;;;;9.48;7.93;;;;;;;2.55;65.78;93968.44;4218675;28;20051;-70
2021/03/18 00:58:14;;;;;;;8.95;8.00;;;;;;;2.60;65.44;93961.94;4238533;27;20383;-71
2021/03/18 01:00:22;;;;;;;10.07;8.98;;;;;;;2.60;65.32;93961.09;4200269;28;20186;-70
2021/03/18 01:02:23;;;;;;;9.70;8.35;;;;;;;2.44;65.74;93967.53;4228545;28;20044;-72
2021/03/18 01:04:25;;;;;;;10.40;8.40;;;;;;;2.55;65.74;93968.44;4224084;28;20082;-71
2021/03/18 01:06:29;;;;;;;9.38;7.88;;;;;;;2.54;65.69;93961.59;4203982;28;20044;-70
2021/03/18 01:08:32;;;;;;;11.32;8.77;;;;;;;2.50;65.56;93961.06;4212039;28;20155;-71
2021/03/18 01:10:40;;;;;;;10.70;7.83;;;;;;;2.48;65.60;93964.72;4208255;28;20618;-71
2021/03/18 01:12:42;;;;;;;9.43;7.95;;;;;;;2.38;66.53;93968.06;4223808;27;20056;-70
2021/03/18 01:14:43;;;;;;;9.80;8.75;;;;;;;2.43;66.35;93971.09;4232730;27;20062;-71
2021/03/18 01:16:49;;;;;;;9.52;7.80;;;;;;;2.39;66.04;93972.28;4227511;28;20056;-71
2021/03/18 01:18:55;;;;;;;10.50;8.90;;;;;;;2.35;66.78;93967.50;4232072;28;20086;-83
2021/03/18 01:20:56;;;;;;;10.75;8.70;;;;;;;2.39;66.29;93968.91;4234650;28;20051;-71
2021/03/18 01:22:57;;;;;;;9.85;8.43;;;;;;;2.43;65.79;93963.34;4221236;28;20521;-71
2021/03/18 01:24:59;;;;;;;10.93;8.68;;;;;;;2.37;65.35;93975.97;4192410;28;20052;-70
2021/03/18 01:27:01;;;;;;;9.85;8.20;;;;;;;2.28;66.51;93969.78;4206664;28;20545;-72
2021/03/18 01:29:03;;;;;;;9.73;8.52;;;;;;;2.20;66.18;93977.34;4202083;28;20059;-71
2021/03/18 01:31:06;;;;;;;12.27;8.82;;;;;;;2.34;66.31;93969.25;4209864;28;20047;-70
2021/03/18 01:33:08;;;;;;;11.48;8.63;;;;;;;2.48;65.69;93962.13;4194477;28;20071;-71
2021/03/18 01:35:16;;;;;;;9.50;8.48;;;;;;;2.49;65.34;93959.41;4227714;28;20047;-70
2021/03/18 01:37:17;;;;;;;12.82;9.38;;;;;;;2.45;65.39;93966.63;4228070;28;20062;-70
2021/03/18 01:39:18;;;;;;;12.90;9.15;;;;;;;2.48;65.22;93977.66;4211544;28;20052;-71
2021/03/18 01:41:21;;;;;;;10.25;8.07;;;;;;;2.51;65.47;93961.88;4227493;27;20395;-72
2021/03/18 01:43:24;;;;;;;11.57;9.07;;;;;;;2.53;65.45;93968.53;4218120;28;20052;-72
2021/03/18 01:45:25;;;;;;;10.85;8.68;;;;;;;2.42;65.56;93972.03;4233873;27;20058;-69
2021/03/18 01:47:26;;;;;;;10.88;9.10;;;;;;;2.49;65.13;93969.75;4217969;28;20044;-72
2021/03/18 01:49:28;;;;;;;11.65;9.27;;;;;;;2.49;65.22;93974.09;4218654;28;20052;-70
2021/03/18 01:51:29;;;;;;;10.13;8.30;;;;;;;2.50;64.78;93973.97;4228799;28;20092;-70
2021/03/18 01:53:31;;;;;;;9.35;8.10;;;;;;;2.60;65.09;93974.03;4226658;28;20043;-72
2021/03/18 01:55:43;;;;;;;9.63;8.55;;;;;;;2.61;64.53;93983.44;4208211;28;20117;-70
2021/03/18 01:57:45;;;;;;;10.88;8.60;;;;;;;2.64;64.96;93972.81;4210878;28;20044;-70
2021/03/18 01:59:47;;;;;;;9.77;7.97;;;;;;;2.68;64.57;93971.63;4220992;28;20069;-73
2021/03/18 02:01:48;;;;;;;11.88;8.10;;;;;;;2.63;64.32;93986.72;4209764;28;20121;-71
2021/03/18 02:03:49;;;;;;;9.48;8.32;;;;;;;2.58;64.74;93979.34;4210212;28;20040;-70
2021/03/18 02:05:51;;;;;;;8.80;7.70;;;;;;;2.63;64.94;93977.19;4226150;28;20236;-71
2021/03/18 02:07:53;;;;;;;8.98;7.85;;;;;;;2.61;64.82;93981.66;4226469;28;20100;-71
2021/03/18 02:09:55;;;;;;;8.45;7.50;;;;;;;2.55;64.68;93982.16;4209613;28;20040;-71
2021/03/18 02:11:56;;;;;;;10.00;7.43;;;;;;;2.58;65.13;93988.84;4201489;28;20048;-71
2021/03/18 02:13:58;;;;;;;8.93;7.57;;;;;;;2.57;65.33;93992.38;4230809;27;20484;-71
2021/03/18 02:16:05;;;;;;;9.88;7.65;;;;;;;2.54;65.85;93992.63;4218439;28;20045;-71
2021/03/18 02:18:16;;;;;;;8.73;7.57;;;;;;;2.53;65.52;94009.09;4213840;28;20054;-71
2021/03/18 02:20:55;;;;;;;9.65;7.90;;;;;;;2.56;65.74;93995.91;4213599;28;20040;-70
2021/03/18 02:23:11;;;;;;;8.90;7.07;;;;;;;2.55;65.91;94000.25;4214399;28;20047;-71
2021/03/18 02:25:16;;;;;;;9.18;7.97;;;;;;;2.55;65.87;94005.44;4224859;28;20054;-69
2021/03/18 02:27:42;;;;;;;10.23;7.50;;;;;;;2.59;66.02;94004.22;4221283;28;20044;-71
2021/03/18 02:30:08;;;;;;;8.48;6.93;;;;;;;2.51;66.11;94009.22;4227885;28;20055;-70
2021/03/18 02:32:47;;;;;;;10.27;7.55;;;;;;;2.52;66.28;94010.03;4202492;28;20517;-71
2021/03/18 02:35:07;;;;;;;9.00;7.82;;;;;;;2.44;66.47;94003.75;4211493;28;20063;-72
2021/03/18 02:37:12;;;;;;;9.43;7.68;;;;;;;2.41;66.75;93998.84;4209408;28;20055;-70
2021/03/18 02:39:19;;;;;;;9.85;7.43;;;;;;;2.36;66.74;94006.13;4225337;28;20047;-70
2021/03/18 02:41:23;;;;;;;10.75;8.10;;;;;;;2.44;66.68;94003.75;4204133;28;20565;-70
2021/03/18 02:43:26;;;;;;;8.57;7.53;;;;;;;2.46;66.21;93999.25;4214311;28;20105;-70
2021/03/18 02:45:33;;;;;;;8.65;6.97;;;;;;;2.52;66.02;94002.28;4206292;28;20052;-71
2021/03/18 02:47:36;;;;;;;9.18;7.78;;;;;;;2.45;66.43;94005.41;4225088;28;20048;-70
2021/03/18 02:49:43;;;;;;;;;;;;;;;2.46;66.36;94007.03;4192324;28;20123;-70
2021/03/18 02:51:44;;;;;;;9.90;7.75;;;;;;;2.41;66.24;94004.00;4209360;28;19965;-70
2021/03/18 02:53:47;;;;;;;9.68;7.80;;;;;;;2.47;66.10;94002.66;4207419;28;20056;-71
2021/03/18 02:55:50;;;;;;;8.52;7.32;;;;;;;2.53;66.26;93996.16;4196578;28;20079;-71
2021/03/18 02:57:52;;;;;;;9.25;8.15;;;;;;;2.61;65.86;94001.53;4224709;28;20039;-70
2021/03/18 02:59:54;;;;;;;8.95;7.60;;;;;;;2.54;65.55;94008.97;4205058;28;20507;-69
2021/03/18 03:01:56;;;;;;;10.75;7.47;;;;;;;2.51;66.05;94003.22;4202605;28;20070;-70
2021/03/18 03:03:58;;;;;;;9.15;7.28;;;;;;;2.46;65.57;94012.19;4208562;28;20414;-70
2021/03/18 03:06:01;;;;;;;8.75;7.53;;;;;;;2.40;65.61;94002.34;4228111;28;20039;-71
2021/03/18 03:08:04;;;;;;;8.68;7.45;;;;;;;2.40;65.42;93996.38;4207751;28;20538;-71
2021/03/18 03:10:07;;;;;;;9.20;7.80;;;;;;;2.39;65.68;93994.75;4191933;28;20695;-70
2021/03/18 03:12:08;;;;;;;8.80;7.20;;;;;;;2.41;65.43;94000.56;4224853;28;20142;-69
2021/03/18 03:14:10;;;;;;;8.68;7.32;;;;;;;2.49;65.03;94007.72;4209831;28;20060;-82
2021/03/18 03:16:14;;;;;;;9.50;7.47;;;;;;;2.50;64.80;94005.00;4214121;28;20046;-82
2021/03/18 03:18:16;;;;;;;8.63;7.10;;;;;;;2.45;64.54;94010.56;4222723;28;20051;-81
2021/03/18 03:20:18;;;;;;;7.82;6.47;;;;;;;2.45;64.90;94007.13;4220028;28;20135;-82
2021/03/18 03:22:20;;;;;;;10.00;8.13;;;;;;;2.46;65.04;94011.38;4221839;28;20054;-82
2021/03/18 03:24:22;;;;;;;7.88;7.07;;;;;;;2.48;65.12;94019.81;4201404;28;20055;-83
2021/03/18 03:26:24;;;;;;;7.70;6.53;;;;;;;2.38;65.49;94019.75;4219570;28;20048;-82
2021/03/18 03:28:26;;;;;;;8.43;7.30;;;;;;;2.33;66.65;94013.34;4213718;28;20136;-83
2021/03/18 03:30:28;;;;;;;9.88;7.03;;;;;;;2.33;66.79;94021.91;4220825;28;20044;-81
2021/03/18 03:32:29;;;;;;;8.63;6.95;;;;;;;2.34;67.04;94033.06;4214929;28;20051;-83
2021/03/18 03:34:32;;;;;;;9.55;7.68;;;;;;;2.25;67.34;94022.53;4218160;28;20067;-81
2021/03/18 03:36:34;;;;;;;10.05;7.50;;;;;;;2.22;67.97;94029.72;4217913;28;20044;-82
2021/03/18 03:38:36;;;;;;;8.32;7.05;;;;;;;2.28;68.34;94031.81;4221898;28;20575;-81
2021/03/18 03:40:37;;;;;;;8.30;7.05;;;;;;;2.31;68.24;94028.97;4242610;27;20055;-83
2021/03/18 03:42:38;;;;;;;8.38;7.47;;;;;;;2.18;68.62;94041.25;4235372;28;20058;-81
2021/03/18 03:44:40;;;;;;;8.50;6.90;;;;;;;2.24;68.49;94035.59;4223977;28;20048;-83
2021/03/18 03:46:41;;;;;;;9.38;7.50;;;;;;;2.13;68.46;94031.28;4234624;28;20054;-82
2021/03/18 03:48:43;;;;;;;8.68;7.63;;;;;;;2.16;69.08;94032.81;4236292;28;20619;-82
2021/03/18 03:50:44;;;;;;;8.95;7.28;;;;;;;2.19;68.84;94035.94;4240599;28;20055;-82
2021/03/18 03:53:03;;;;;;;8.38;6.93;;;;;;;2.18;68.98;94031.72;4216802;28;20056;-82
2021/03/18 03:55:14;;;;;;;8.55;7.00;;;;;;;2.23;68.84;94041.69;4201502;28;20102;-81
2021/03/18 03:57:44;;;;;;;8.55;7.28;;;;;;;2.17;69.09;94034.44;4222313;28;20081;-83
2021/03/18 03:59:46;;;;;;;8.27;7.15;;;;;;;2.13;68.92;94033.03;4200481;28;20049;-84
2021/03/18 04:01:50;;;;;;;9.27;8.07;;;;;;;2.14;69.25;94032.91;4234301;28;20048;-82
2021/03/18 04:04:14;;;;;;;8.90;7.68;;;;;;;2.17;69.16;94039.59;4218373;28;20060;-81
2021/03/18 04:06:17;;;;;;;9.70;7.60;;;;;;;2.22;68.36;94037.47;4217401;28;20044;-83
2021/03/18 04:08:21;;;;;;;9.07;7.43;;;;;;;2.15;69.04;94034.56;4223900;28;20060;-82
2021/03/18 04:10:24;;;;;;;12.00;7.45;;;;;;;2.11;69.16;94029.75;4226628;28;20047;-84
2021/03/18 04:12:39;;;;;;;9.10;7.60;;;;;;;2.11;68.66;94046.09;4229371;28;20047;-82
2021/03/18 04:14:48;;;;;;;9.02;7.00;;;;;;;1.99;68.41;94032.38;4247038;28;20366;-79
2021/03/18 04:16:51;;;;;;;8.68;6.75;;;;;;;2.07;68.03;94039.53;4220046;28;20249;-83
2021/03/18 04:18:54;;;;;;;8.98;7.20;;;;;;;2.16;67.57;94041.38;4230022;28;20089;-82
2021/03/18 04:20:58;;;;;;;9.88;7.18;;;;;;;2.19;67.54;94037.72;4219819;28;20062;-84
2021/03/18 04:23:02;;;;;;;11.27;8.15;;;;;;;2.12;67.72;94039.16;4224930;28;20043;-82
2021/03/18 04:25:05;;;;;;;10.48;7.43;;;;;;;2.17;67.64;94039.59;4217427;28;20048;-82
2021/03/18 04:27:07;;;;;;;10.82;7.95;;;;;;;2.18;67.56;94034.31;4223506;28;20395;-71
2021/03/18 04:29:09;;;;;;;9.50;7.28;;;;;;;2.13;67.66;94036.47;4215083;28;20139;-71
2021/03/18 04:31:10;;;;;;;11.40;8.00;;;;;;;2.14;67.80;94047.59;4221614;28;20048;-71
2021/03/18 04:33:12;;;;;;;9.95;7.53;;;;;;;2.11;67.62;94034.91;4217134;28;20490;-71
2021/03/18 04:35:14;;;;;;;9.30;7.07;;;;;;;2.21;67.52;94054.72;4200263;28;20071;-70
2021/03/18 04:37:15;;;;;;;8.68;7.25;;;;;;;2.20;66.93;94044.53;4219238;28;20156;-71
2021/03/18 04:39:17;;;;;;;9.88;7.70;;;;;;;2.17;67.30;94043.03;4210407;28;20487;-73
2021/03/18 04:41:18;;;;;;;9.90;7.47;;;;;;;2.23;67.49;94052.84;4209320;28;20060;-71
2021/03/18 04:43:21;;;;;;;9.35;7.25;;;;;;;2.17;67.53;94052.50;4194233;28;20060;-70
2021/03/18 04:45:23;;;;;;;8.73;7.15;;;;;;;2.24;67.08;94045.94;4230924;28;20085;-83
2021/03/18 04:47:25;;;;;;;9.88;7.47;;;;;;;2.12;68.17;94049.50;4235338;28;20059;-83
2021/03/18 04:49:27;;;;;;;8.27;6.80;;;;;;;2.13;67.87;94071.78;4216560;28;20116;-83
2021/03/18 04:51:29;;;;;;;9.60;7.32;;;;;;;2.09;68.41;94063.50;4217320;28;20048;-81
2021/03/18 04:53:30;;;;;;;8.23;6.82;;;;;;;2.10;68.32;94052.19;4217110;28;20469;-81
2021/03/18 04:55:31;;;;;;;8.57;7.10;;;;;;;2.09;69.05;94054.88;4236610;28;20085;-82
2021/03/18 04:57:35;;;;;;;8.65;6.80;;;;;;;2.09;69.15;94060.91;4232268;28;20566;-83
2021/03/18 04:59:37;;;;;;;10.52;6.68;;;;;;;2.07;69.19;94059.41;4220541;28;20051;-84
2021/03/18 05:01:39;;;;;;;8.73;7.22;;;;;;;2.09;69.40;94070.41;4229456;28;20263;-85
2021/03/18 05:03:41;;;;;;;8.07;6.50;;;;;;;2.10;69.22;94066.88;4222787;28;20048;-84
2021/03/18 05:05:43;;;;;;;9.82;6.47;;;;;;;2.03;69.71;94063.97;4206160;28;20558;-84
2021/03/18 05:07:46;;;;;;;9.95;7.15;;;;;;;2.04;69.80;94076.78;4209496;28;20446;-86
2021/03/18 05:09:47;;;;;;;7.65;6.53;;;;;;;2.01;69.40;94076.19;4205475;28;20127;-82
2021/03/18 05:11:53;;;;;;;10.70;7.25;;;;;;;2.02;69.84;94078.66;4216606;28;20060;-81
2021/03/18 05:13:54;;;;;;;8.68;6.82;;;;;;;2.08;69.91;94079.91;4219417;28;20052;-82
2021/03/18 05:15:57;;;;;;;10.57;7.65;;;;;;;2.14;69.93;94076.84;4224400;28;20430;-85
2021/03/18 05:17:58;;;;;;;8.63;7.63;;;;;;;2.19;69.95;94082.44;4218534;28;20056;-80
2021/03/18 05:20:00;;;;;;;9.75;7.30;;;;;;;2.14;70.06;94088.94;4230189;28;20047;-83
2021/03/18 05:22:03;;;;;;;10.02;7.03;;;;;;;2.16;69.34;94087.88;4238736;27;20059;-85
2021/03/18 05:24:07;;;;;;;10.00;7.63;;;;;;;2.19;69.13;94084.22;4207956;28;20131;-83
2021/03/18 05:26:09;;;;;;;6.97;6.25;;;;;;;2.15;69.24;94090.56;4225827;28;20065;-87
2021/03/18 05:28:10;;;;;;;8.32;6.75;;;;;;;2.10;69.05;94080.63;4217444;28;20533;-83
2021/03/18 05:30:14;;;;;;;9.70;6.40;;;;;;;2.18;68.32;94088.59;4219906;28;20051;-81
2021/03/18 05:32:15;;;;;;;9.40;7.43;;;;;;;2.21;68.54;94083.16;4229840;28;20046;-82
2021/03/18 05:34:16;;;;;;;9.57;7.10;;;;;;;2.12;68.66;94101.16;4220343;28;20098;-86
2021/03/18 05:36:18;;;;;;;8.68;7.03;;;;;;;2.17;68.06;94091.28;4221744;28;20044;-83
2021/03/18 05:38:19;;;;;;;8.88;7.03;;;;;;;2.19;67.85;94092.78;4245446;27;20413;-83
2021/03/18 05:40:21;;;;;;;9.82;7.22;;;;;;;2.31;67.92;94090.19;4217010;28;20546;-83
2021/03/18 05:46:12;;;;;;;;;;;;;;;;;;;;;
2021/03/18 05:51:26;;;;;;;7.03;5.55;;;;;;;2.38;65.97;94112.81;4229354;28;20100;-83
2021/03/18 05:53:38;;;;;;;7.65;6.43;;;;;;;2.39;65.99;94111.88;4250627;27;20051;-84
2021/03/18 05:55:42;;;;;;;7.93;6.18;;;;;;;2.39;66.18;94111.06;4235152;28;20520;-85
2021/03/18 05:57:46;;;;;;;7.10;5.80;;;;;;;2.33;66.46;94119.31;4232334;28;20070;-83
2021/03/18 05:59:47;;;;;;;7.10;5.20;;;;;;;2.36;65.88;94111.31;4222543;28;20487;-83
2021/03/18 06:01:49;;;;;;;8.77;6.38;;;;;;;2.29;66.55;94118.72;4228796;28;20094;-85
2021/03/18 06:03:51;;;;;;;8.27;6.05;;;;;;;2.32;66.56;94121.06;4234790;27;20047;-71
2021/03/18 06:05:53;;;;;;;9.43;6.22;;;;;;;2.41;66.28;94115.16;4210507;28;20098;-70
2021/03/18 06:07:54;;;;;;;8.40;6.65;;;;;;;2.52;66.83;94128.97;4213158;28;20048;-70
2021/03/18 06:09:56;;;;;;;7.95;6.50;;;;;;;2.42;67.32;94127.13;4222492;28;20056;-70
2021/03/18 06:11:57;;;;;;;8.27;6.22;;;;;;;2.39;67.42;94124.00;4210813;28;20044;-70
2021/03/18 06:13:58;;;;;;;7.80;6.15;;;;;;;2.42;68.02;94128.91;4209539;28;20486;-72
2021/03/18 06:16:01;;;;;;;7.78;6.32;;;;;;;2.35;67.60;94131.16;4192735;28;20048;-71
2021/03/18 06:18:02;;;;;;;8.38;6.25;;;;;;;2.35;67.74;94133.75;4202965;28;20047;-73
2021/03/18 06:20:11;;;;;;;8.02;6.20;;;;;;;2.41;67.82;94128.09;4234001;28;20047;-87
2021/03/18 06:22:12;;;;;;;9.23;6.95;;;;;;;2.44;68.04;94132.19;4218866;28;20475;-87
2021/03/18 06:24:14;;;;;;;9.50;6.95;;;;;;;2.53;67.96;94133.22;4235498;28;20067;-84
2021/03/18 06:26:32;;;;;;;10.48;7.35;;;;;;;2.40;68.35;94129.03;4224448;28;20075;-85
2021/03/18 06:28:35;;;;;;;7.63;6.15;;;;;;;2.62;67.54;94138.47;4246569;27;20050;-85
2021/03/18 06:30:38;;;;;;;7.80;6.35;;;;;;;2.57;67.69;94147.53;4236928;27;20050;-84
2021/03/18 06:32:41;;;;;;;8.00;6.82;;;;;;;2.73;67.56;94142.75;4216703;28;20130;-72
2021/03/18 06:34:59;;;;;;;8.52;6.85;;;;;;;2.81;67.00;94134.34;4228068;28;20421;-72
2021/03/18 06:37:00;;;;;;;8.73;6.80;;;;;;;2.80;67.07;94143.09;4226646;28;20053;-72
2021/03/18 06:39:04;;;;;;;8.98;6.70;;;;;;;2.70;67.99;94147.34;4213214;28;20052;-71
2021/03/18 06:41:06;;;;;;;8.10;6.35;;;;;;;2.70;67.76;94144.78;4227318;28;20090;-73
2021/03/18 06:43:07;;;;;;;8.05;6.22;;;;;;;2.81;66.52;94152.47;4219141;28;20075;-72
2021/03/18 06:45:15;;;;;;;9.10;6.32;;;;;;;2.94;66.49;94149.69;4230306;28;20051;-72
2021/03/18 06:47:16;;;;;;;8.38;5.70;;;;;;;3.04;65.19;94155.75;4222588;28;20052;-73
2021/03/18 06:49:19;;;;;;;7.75;5.20;;;;;;;3.17;64.05;94147.81;4232696;28;20114;-72
2021/03/18 06:51:21;;;;;;;7.18;5.45;;;;;;;3.21;63.54;94138.84;4201901;28;20407;-71
2021/03/18 06:53:24;;;;;;;6.30;5.03;;;;;;;3.22;62.83;94146.44;4230724;28;20118;-72
2021/03/18 06:55:31;;;;;;;10.48;8.13;;;;;;;3.24;62.82;94136.78;4205241;28;20044;-71
2021/03/18 06:57:33;;;;;;;9.82;7.95;;;;;;;3.37;63.03;94152.13;4216450;28;20051;-72
2021/03/18 06:59:37;;;;;;;6.85;5.47;;;;;;;3.30;61.97;94160.53;4211577;28;20086;-71
2021/03/18 07:01:38;;;;;;;7.35;5.55;;;;;;;3.30;61.92;94145.00;4221043;28;20054;-72
2021/03/18 07:03:40;;;;;;;7.30;5.07;;;;;;;3.23;61.13;94155.88;4228054;28;20051;-71
2021/03/18 07:05:44;;;;;;;6.35;4.70;;;;;;;3.40;60.77;94158.81;4227007;28;20426;-71
2021/03/18 07:07:50;;;;;;;6.07;4.80;;;;;;;3.48;60.47;94151.22;4208754;28;20052;-71
2021/03/18 07:09:54;;;;;;;6.72;5.18;;;;;;;3.53;60.55;94161.19;4212489;28;20055;-71
2021/03/18 07:11:59;;;;;;;;;;;;;;;3.40;60.02;94156.22;4229754;28;20082;-72
2021/03/18 07:14:00;;;;;;;6.20;4.90;;;;;;;3.40;60.58;94167.41;4203089;28;19966;-74
2021/03/18 07:16:08;;;;;;;6.45;4.43;;;;;;;3.37;60.04;94172.03;4212825;28;20048;-71
2021/03/18 07:18:11;;;;;;;5.80;4.30;;;;;;;3.21;60.34;94168.13;4195868;28;20059;-74
2021/03/18 07:20:14;;;;;;;5.57;4.65;;;;;;;3.09;61.19;94163.94;4230565;28;20570;-71
2021/03/18 07:22:19;;;;;;;6.43;4.63;;;;;;;3.22;60.73;94189.66;4230109;28;20050;-73
2021/03/18 07:24:21;;;;;;;6.03;4.93;;;;;;;3.25;61.33;94155.75;4193474;28;20123;-72
2021/03/18 07:26:24;;;;;;;7.63;4.90;;;;;;;3.26;60.59;94158.19;4230714;28;20049;-73
2021/03/18 07:28:25;;;;;;;7.65;5.57;;;;;;;3.35;60.59;94164.38;4209614;28;20048;-73
2021/03/18 07:30:34;;;;;;;6.68;5.18;;;;;;;3.41;60.25;94165.63;4229651;28;20438;-71
2021/03/18 07:32:36;;;;;;;5.50;4.55;;;;;;;3.37;60.69;94156.47;4211076;28;20051;-72
2021/03/18 07:34:43;;;;;;;6.10;5.00;;;;;;;3.34;60.31;94180.88;4231100;28;20052;-71
2021/03/18 07:36:46;;;;;;;5.93;4.80;;;;;;;3.40;60.17;94162.22;4236771;27;20043;-70
2021/03/18 07:38:48;;;;;;;6.68;5.13;;;;;;;3.57;59.83;94165.16;4236698;27;20515;-73
2021/03/18 07:40:49;;;;;;;6.95;5.00;;;;;;;3.74;60.00;94163.72;4229364;28;20056;-73
2021/03/18 07:42:52;;;;;;;7.20;5.63;;;;;;;3.79;60.18;94166.78;4230250;28;20051;-72
2021/03/18 07:44:54;;;;;;;6.23;4.27;;;;;;;3.69;59.56;94171.91;4211604;28;20112;-73
2021/03/18 07:46:55;;;;;;;6.10;4.78;;;;;;;3.67;59.69;94172.00;4228592;28;20283;-73
2021/03/18 07:49:04;;;;;;;6.38;4.72;;;;;;;3.87;59.40;94154.78;4206502;28;20047;-72
2021/03/18 07:51:05;;;;;;;6.03;4.60;;;;;;;3.94;58.70;94175.81;4212505;28;20314;-72
2021/03/18 07:53:10;;;;;;;7.00;5.45;;;;;;;4.09;58.34;94160.72;4229754;28;20051;-73
2021/03/18 07:55:18;;;;;;;5.90;4.43;;;;;;;4.04;58.16;94166.31;4228597;28;20088;-72
2021/03/18 07:57:20;;;;;;;6.97;4.88;;;;;;;3.99;58.25;94175.41;4212591;28;20044;-73
2021/03/18 07:59:28;;;;;;;6.00;4.63;;;;;;;3.90;58.58;94162.28;4229712;28;20048;-73
2021/03/18 08:01:30;;;;;;;5.80;4.82;;;;;;;3.92;58.12;94177.72;4230641;28;20048;-72
2021/03/18 08:03:32;;;;;;;6.13;4.80;;;;;;;4.15;58.45;94167.13;4229906;28;20126;-72
2021/03/18 08:05:40;;;;;;;5.70;4.45;;;;;;;4.20;57.95;94168.38;4230317;28;20051;-72
2021/03/18 08:07:45;;;;;;;7.05;5.15;;;;;;;4.15;58.69;94175.75;4229623;28;20047;-72
2021/03/18 08:09:48;;;;;;;6.30;4.93;;;;;;;4.20;57.93;94168.38;4228951;28;20511;-74
2021/03/18 08:11:50;;;;;;;5.47;4.72;;;;;;;4.15;58.44;94177.50;4213184;28;20551;-72
2021/03/18 08:13:51;;;;;;;6.88;4.60;;;;;;;3.99;58.91;94176.22;4229883;27;20051;-73
2021/03/18 08:15:52;;;;;;;9.00;5.38;;;;;;;3.92;59.28;94198.44;4223510;28;20063;-72
2021/03/18 08:17:55;;;;;;;6.65;4.90;;;;;;;3.93;59.56;94189.72;4237253;27;20079;-71
2021/03/18 08:19:57;;;;;;;5.80;4.18;;;;;;;4.01;59.22;94189.06;4216964;28;20427;-72
2021/03/18 08:21:58;;;;;;;6.05;4.72;;;;;;;3.95;58.62;94187.00;4220724;28;20091;-72
2021/03/18 08:23:59;;;;;;;7.05;5.22;;;;;;;3.95;59.68;94193.00;4211993;28;20044;-71
2021/03/18 08:26:38;;;;;;;6.85;4.72;;;;;;;4.11;59.97;94187.31;4198261;28;20130;-72
2021/03/18 08:28:43;;;;;;;6.68;4.90;;;;;;;4.15;59.58;94187.88;4183463;28;20056;-74
2021/03/18 08:30:54;;;;;;;5.85;4.82;;;;;;;4.21;59.12;94197.72;4210053;28;20085;-73
2021/03/18 08:32:59;;;;;;;6.45;4.75;;;;;;;4.23;59.25;94170.69;4232288;27;20051;-72
2021/03/18 08:35:06;;;;;;;9.60;5.32;;;;;;;4.31;59.32;94172.63;4205192;28;20055;-71
2021/03/18 08:37:47;;;;;;;7.25;4.97;;;;;;;4.37;58.88;94174.69;4241911;27;20055;-72
2021/03/18 08:39:50;;;;;;;5.55;4.53;;;;;;;4.28;58.53;94188.44;4225097;28;20048;-72
2021/03/18 08:41:51;;;;;;;5.30;3.85;;;;;;;4.23;58.70;94182.84;4227979;28;20143;-71
2021/03/18 08:44:31;;;;;;;6.07;4.25;;;;;;;4.17;59.52;94185.97;4228577;28;20059;-72
2021/03/18 08:46:44;;;;;;;8.27;4.68;;;;;;;4.30;58.74;94181.34;4144704;28;20052;-72
2021/03/18 08:49:18;;;;;;;7.13;4.53;;;;;;;4.21;59.46;94182.97;4188453;28;20109;-73
2021/03/18 08:51:40;;;;;;;8.13;5.00;;;;;;;4.42;59.35;94185.47;4211508;28;20105;-71
2021/03/18 08:53:44;;;;;;;8.73;4.78;;;;;;;4.51;57.81;94192.44;4225975;28;20126;-73
2021/03/18 08:55:46;;;;;;;6.80;4.93;;;;;;;4.52;56.93;94188.09;4228615;28;20109;-72
2021/03/18 08:57:57;;;;;;;6.63;4.40;;;;;;;4.32;58.06;94184.63;4227686;28;20163;-72
2021/03/18 09:00:13;;;;;;;5.65;4.80;;;;;;;4.45;58.35;94182.63;4205573;28;20464;-72
2021/03/18 09:02:21;;;;;;;7.63;4.82;;;;;;;4.53;57.73;94181.94;4224645;28;20132;-73
2021/03/18 09:04:23;;;;;;;7.25;5.38;;;;;;;4.47;58.31;94185.06;4229103;28;20047;-71
2021/03/18 09:06:27;;;;;;;9.02;6.05;;;;;;;4.37;58.82;94186.84;4213941;28;20562;-72
2021/03/18 09:08:35;;;;;;;7.60;6.32;;;;;;;4.46;59.07;94171.28;4216380;28;20083;-72
2021/03/18 09:10:37;;;;;;;10.75;7.03;;;;;;;4.53;59.07;94181.94;4210446;28;20086;-74
2021/03/18 09:12:44;;;;;;;10.02;6.85;;;;;;;4.48;59.09;94187.53;4226332;28;20051;-74
2021/03/18 09:14:45;;;;;;;14.43;7.30;;;;;;;4.54;59.02;94182.75;4231766;27;20120;-75
2021/03/18 09:16:48;;;;;;;7.32;6.05;;;;;;;4.55;58.56;94192.19;4208514;28;20147;-73
2021/03/18 09:18:57;;;;;;;8.90;5.55;;;;;;;4.67;58.30;94188.50;4209687;28;20060;-73
2021/03/18 09:21:07;;;;;;;8.57;6.07;;;;;;;4.80;57.64;94177.88;4210385;28;20054;-73
2021/03/18 09:23:14;;;;;;;8.90;5.20;;;;;;;4.91;57.79;94196.69;4229233;28;20087;-72
2021/03/18 09:25:15;;;;;;;5.40;4.25;;;;;;;4.97;56.45;94184.97;4229229;27;20058;-72
2021/03/18 09:27:16;;;;;;;4.95;3.45;;;;;;;4.86;56.18;94208.44;4223867;28;20066;-72
2021/03/18 09:29:26;;;;;;;3.85;3.10;;;;;;;4.74;56.52;94218.16;4228746;28;20494;-72
2021/03/18 09:31:28;;;;;;;5.50;3.47;;;;;;;4.49;57.45;94202.13;4209638;28;20436;-74
2021/03/18 09:33:32;;;;;;;4.68;3.60;;;;;;;4.25;58.74;94204.28;4227388;28;20044;-73
2021/03/18 09:35:33;;;;;;;5.57;3.83;;;;;;;4.31;59.05;94204.56;4228706;28;20055;-76
2021/03/18 09:37:36;;;;;;;7.82;4.32;;;;;;;4.42;59.83;94203.63;4213374;28;20051;-74
2021/03/18 09:39:47;;;;;;;5.90;4.65;;;;;;;4.33;59.61;94217.41;4222566;28;20043;-72
2021/03/18 09:41:49;;;;;;;5.70;4.60;;;;;;;3.78;62.79;94228.09;4227092;28;20051;-72
2021/03/18 09:43:57;;;;;;;8.20;5.45;;;;;;;3.59;64.67;94223.69;4209866;28;20474;-73
2021/03/18 09:45:58;;;;;;;5.88;4.25;;;;;;;3.75;63.68;94223.19;4203000;28;20055;-75
2021/03/18 09:48:03;;;;;;;6.30;4.60;;;;;;;4.07;64.02;94223.06;4218733;27;20403;-72
2021/03/18 09:50:06;;;;;;;5.35;4.40;;;;;;;3.98;63.42;94234.22;4225989;28;20079;-71
2021/03/18 09:52:10;;;;;;;5.68;4.40;;;;;;;3.84;64.80;94237.97;4215314;27;20062;-74
2021/03/18 09:54:13;;;;;;;5.55;4.28;;;;;;;3.66;65.74;94235.16;4238838;27;20559;-88
2021/03/18 09:56:15;;;;;;;8.95;4.95;;;;;;;3.61;66.25;94237.28;4191913;28;20167;-88
2021/03/18 09:58:17;;;;;;;8.93;6.22;;;;;;;3.54;67.18;94241.34;4217714;28;20506;-87
2021/03/18 10:00:19;;;;;;;7.88;5.10;;;;;;;3.42;67.71;94250.13;4213713;28;20048;-87